createdAt,value
2018-08-18T00:00:21.098Z,0
2018-08-18T00:01:21.775Z,0
2018-08-18T00:02:22.455Z,0
2018-08-18T00:03:23.132Z,0
2018-08-18T00:04:23.810Z,0
2018-08-18T00:05:24.488Z,0
2018-08-18T00:06:25.167Z,0
2018-08-18T00:07:25.846Z,0
2018-08-18T00:08:26.523Z,0
2018-08-18T00:09:27.201Z,0
2018-08-18T00:10:27.880Z,0
2018-08-18T00:11:28.558Z,0
2018-08-18T00:12:29.236Z,0
2018-08-18T00:13:29.914Z,0
2018-08-18T00:14:30.636Z,0
2018-08-18T00:15:31.315Z,0
2018-08-18T00:16:31.993Z,0
2018-08-18T00:17:32.672Z,0
2018-08-18T00:18:33.348Z,0
2018-08-18T00:19:34.027Z,0
2018-08-18T00:20:34.705Z,0
2018-08-18T00:21:35.383Z,0
2018-08-18T00:22:36.064Z,0
2018-08-18T00:23:36.741Z,0
2018-08-18T00:24:37.418Z,0
2018-08-18T00:25:38.095Z,0
2018-08-18T00:26:38.774Z,0
2018-08-18T00:27:39.498Z,0
2018-08-18T00:28:40.174Z,0
2018-08-18T00:29:40.900Z,0
2018-08-18T00:30:41.575Z,0
2018-08-18T00:31:42.255Z,0
2018-08-18T00:32:42.936Z,0
2018-08-18T00:33:43.609Z,0
2018-08-18T00:34:44.287Z,0
2018-08-18T00:35:44.966Z,0
2018-08-18T00:36:45.643Z,0
2018-08-18T00:37:46.322Z,0
2018-08-18T00:38:46.999Z,0
2018-08-18T00:39:47.680Z,0
2018-08-18T00:40:48.355Z,0
2018-08-18T00:41:49.034Z,0
2018-08-18T00:42:49.709Z,0
2018-08-18T00:43:50.389Z,0
2018-08-18T00:44:51.066Z,0
2018-08-18T00:45:51.789Z,0
2018-08-18T00:46:52.466Z,0
2018-08-18T00:47:53.146Z,0
2018-08-18T00:48:53.823Z,0
2018-08-18T00:49:54.500Z,0
2018-08-18T00:50:55.225Z,0
2018-08-18T00:51:55.904Z,0
2018-08-18T00:52:56.583Z,0
2018-08-18T00:53:57.259Z,0
2018-08-18T00:54:57.936Z,0
2018-08-18T00:55:58.615Z,0
2018-08-18T00:56:59.295Z,0
2018-08-18T00:58:00.015Z,0
2018-08-18T00:59:00.692Z,0
2018-08-18T01:00:01.373Z,0
2018-08-18T01:01:02.051Z,0
2018-08-18T01:02:02.771Z,0
2018-08-18T01:03:03.449Z,0
2018-08-18T01:04:04.127Z,0
2018-08-18T01:05:04.805Z,0
2018-08-18T01:06:05.482Z,0
2018-08-18T01:07:06.159Z,0
2018-08-18T01:08:06.840Z,0
2018-08-18T01:09:07.515Z,0
2018-08-18T01:10:08.193Z,0
2018-08-18T01:11:08.967Z,0
2018-08-18T01:12:09.583Z,0
2018-08-18T01:13:10.251Z,0
2018-08-18T01:14:11.012Z,0
2018-08-18T01:15:11.582Z,0
2018-08-18T01:16:12.261Z,0
2018-08-18T01:17:12.937Z,0
2018-08-18T01:18:13.615Z,0
2018-08-18T01:19:14.291Z,0
2018-08-18T01:20:15.045Z,0
2018-08-18T01:21:15.664Z,0
2018-08-18T01:22:16.338Z,0
2018-08-18T01:23:17.017Z,0
2018-08-18T01:24:17.693Z,0
2018-08-18T01:25:18.375Z,0
2018-08-18T01:26:19.048Z,0
2018-08-18T01:27:19.726Z,0
2018-08-18T01:28:20.403Z,0
2018-08-18T01:29:21.080Z,0
2018-08-18T01:30:21.756Z,0
2018-08-18T01:31:22.434Z,0
2018-08-18T01:32:23.113Z,0
2018-08-18T01:33:23.790Z,0
2018-08-18T01:34:24.467Z,0
2018-08-18T01:35:25.144Z,0
2018-08-18T01:36:25.823Z,0
2018-08-18T01:37:26.500Z,0
2018-08-18T01:38:27.178Z,0
2018-08-18T01:39:27.856Z,0
2018-08-18T01:40:28.535Z,0
2018-08-18T01:41:29.212Z,0
2018-08-18T01:42:29.891Z,0
2018-08-18T01:43:30.566Z,0
2018-08-18T01:44:31.246Z,0
2018-08-18T01:45:31.921Z,0
2018-08-18T01:46:32.599Z,0
2018-08-18T01:47:33.276Z,0
2018-08-18T01:48:33.954Z,0
2018-08-18T01:49:34.635Z,0
2018-08-18T01:50:35.355Z,0
2018-08-18T01:51:36.032Z,0
2018-08-18T01:52:36.711Z,0
2018-08-18T01:53:37.389Z,0
2018-08-18T01:54:38.070Z,0
2018-08-18T01:55:38.745Z,0
2018-08-18T01:56:39.423Z,0
2018-08-18T01:57:40.100Z,0
2018-08-18T01:58:40.778Z,0
2018-08-18T01:59:41.455Z,0
2018-08-18T02:00:42.134Z,0
2018-08-18T02:01:42.812Z,0
2018-08-18T02:02:43.488Z,0
2018-08-18T02:03:44.166Z,0
2018-08-18T02:04:44.847Z,0
2018-08-18T02:05:45.522Z,0
2018-08-18T02:06:46.199Z,0
2018-08-18T02:07:46.876Z,0
2018-08-18T02:08:47.553Z,0
2018-08-18T02:09:48.233Z,0
2018-08-18T02:10:48.954Z,0
2018-08-18T02:11:49.631Z,0
2018-08-18T02:12:50.307Z,0
2018-08-18T02:13:50.987Z,0
2018-08-18T02:14:51.664Z,0
2018-08-18T02:15:52.342Z,0
2018-08-18T02:16:53.019Z,0
2018-08-18T02:17:53.698Z,0
2018-08-18T02:18:54.375Z,0
2018-08-18T02:19:55.072Z,0
2018-08-18T02:20:55.769Z,0
2018-08-18T02:21:56.446Z,0
2018-08-18T02:22:57.123Z,0
2018-08-18T02:23:57.802Z,0
2018-08-18T02:24:58.479Z,0
2018-08-18T02:25:59.158Z,0
2018-08-18T02:26:59.836Z,0
2018-08-18T02:28:00.519Z,0
2018-08-18T02:29:01.193Z,0
2018-08-18T02:30:01.879Z,0
2018-08-18T02:31:02.596Z,0
2018-08-18T02:32:03.271Z,0
2018-08-18T02:33:03.951Z,0
2018-08-18T02:34:04.628Z,0
2018-08-18T02:35:05.309Z,0
2018-08-18T02:36:06.031Z,0
2018-08-18T02:37:06.707Z,0
2018-08-18T02:38:07.384Z,0
2018-08-18T02:39:08.064Z,0
2018-08-18T02:40:08.757Z,0
2018-08-18T02:41:09.419Z,0
2018-08-18T02:42:10.146Z,0
2018-08-18T02:43:10.827Z,0
2018-08-18T02:44:11.548Z,0
2018-08-18T02:45:12.227Z,0
2018-08-18T02:46:12.906Z,0
2018-08-18T02:47:13.584Z,0
2018-08-18T02:48:14.263Z,0
2018-08-18T02:49:14.940Z,0
2018-08-18T02:50:15.617Z,0
2018-08-18T02:51:16.294Z,0
2018-08-18T02:52:16.977Z,0
2018-08-18T02:53:17.651Z,0
2018-08-18T02:54:18.329Z,0
2018-08-18T02:55:19.008Z,0
2018-08-18T02:56:19.685Z,0
2018-08-18T02:57:20.362Z,0
2018-08-18T02:58:21.042Z,0
2018-08-18T02:59:21.764Z,0
2018-08-18T03:00:22.442Z,0
2018-08-18T03:01:23.120Z,0
2018-08-18T03:02:23.796Z,0
2018-08-18T03:03:24.475Z,0
2018-08-18T03:04:25.153Z,0
2018-08-18T03:05:25.831Z,0
2018-08-18T03:06:26.509Z,0
2018-08-18T03:07:27.188Z,0
2018-08-18T03:08:27.863Z,0
2018-08-18T03:09:28.541Z,0
2018-08-18T03:10:29.220Z,0
2018-08-18T03:11:29.894Z,0
2018-08-18T03:12:30.574Z,0
2018-08-18T03:13:31.260Z,0
2018-08-18T03:14:31.929Z,0
2018-08-18T03:15:32.609Z,0
2018-08-18T03:16:33.290Z,0
2018-08-18T03:17:33.964Z,0
2018-08-18T03:18:34.640Z,0
2018-08-18T03:19:35.316Z,0
2018-08-18T03:20:35.996Z,0
2018-08-18T03:21:36.673Z,0
2018-08-18T03:22:37.353Z,0
2018-08-18T03:23:38.030Z,0
2018-08-18T03:24:38.709Z,0
2018-08-18T03:25:39.386Z,0
2018-08-18T03:26:40.064Z,0
2018-08-18T03:27:40.741Z,0
2018-08-18T03:28:41.420Z,0
2018-08-18T03:29:42.097Z,0
2018-08-18T03:30:42.776Z,0
2018-08-18T03:31:43.454Z,0
2018-08-18T03:32:44.137Z,0
2018-08-18T03:33:44.811Z,0
2018-08-18T03:34:45.488Z,0
2018-08-18T03:35:46.165Z,0
2018-08-18T03:36:46.848Z,0
2018-08-18T03:37:47.568Z,0
2018-08-18T03:38:48.246Z,0
2018-08-18T03:39:48.926Z,0
2018-08-18T03:40:49.603Z,0
2018-08-18T03:41:50.279Z,4
2018-08-18T03:42:50.960Z,4
2018-08-18T03:43:51.637Z,4
2018-08-18T03:44:52.316Z,0
2018-08-18T03:45:52.993Z,4
2018-08-18T03:46:53.669Z,4
2018-08-18T03:47:54.349Z,8
2018-08-18T03:48:55.025Z,8
2018-08-18T03:49:55.703Z,8
2018-08-18T03:50:56.380Z,8
2018-08-18T03:51:57.058Z,12
2018-08-18T03:52:57.736Z,8
2018-08-18T03:53:58.415Z,12
2018-08-18T03:54:59.093Z,12
2018-08-18T03:55:59.772Z,16
2018-08-18T03:57:00.450Z,20
2018-08-18T03:58:01.129Z,24
2018-08-18T03:59:01.810Z,28
2018-08-18T04:00:02.533Z,32
2018-08-18T04:01:03.211Z,36
2018-08-18T04:02:03.967Z,44
2018-08-18T04:03:04.577Z,52
2018-08-18T04:04:05.345Z,60
2018-08-18T04:05:06.023Z,64
2018-08-18T04:06:06.701Z,64
2018-08-18T04:07:07.381Z,64
2018-08-18T04:08:08.060Z,68
2018-08-18T04:09:08.775Z,68
2018-08-18T04:10:09.417Z,72
2018-08-18T04:11:10.099Z,84
2018-08-18T04:12:10.773Z,96
2018-08-18T04:13:11.454Z,108
2018-08-18T04:14:12.135Z,112
2018-08-18T04:15:12.815Z,108
2018-08-18T04:16:13.495Z,116
2018-08-18T04:17:14.175Z,116
2018-08-18T04:18:14.853Z,128
2018-08-18T04:19:15.534Z,140
2018-08-18T04:20:16.214Z,148
2018-08-18T04:21:16.891Z,160
2018-08-18T04:23:33.070Z,180
2018-08-18T04:24:33.747Z,196
2018-08-18T04:25:34.426Z,216
2018-08-18T04:26:35.103Z,240
2018-08-18T04:27:35.782Z,268
2018-08-18T04:28:36.459Z,292
2018-08-18T04:29:37.143Z,312
2018-08-18T04:30:37.820Z,328
2018-08-18T04:31:38.501Z,340
2018-08-18T04:32:39.223Z,348
2018-08-18T04:33:39.908Z,360
2018-08-18T04:34:40.625Z,384
2018-08-18T04:35:41.301Z,408
2018-08-18T04:36:41.982Z,428
2018-08-18T04:37:42.662Z,444
2018-08-18T04:38:43.339Z,464
2018-08-18T04:39:44.016Z,480
2018-08-18T04:40:44.698Z,500
2018-08-18T04:41:45.377Z,524
2018-08-18T04:42:46.058Z,528
2018-08-18T04:43:46.743Z,528
2018-08-18T04:44:47.463Z,528
2018-08-18T04:45:48.141Z,540
2018-08-18T04:46:48.820Z,560
2018-08-18T04:47:49.498Z,588
2018-08-18T04:48:50.176Z,616
2018-08-18T04:49:50.855Z,640
2018-08-18T04:50:51.533Z,660
2018-08-18T04:51:52.212Z,668
2018-08-18T04:52:52.891Z,668
2018-08-18T04:53:53.570Z,668
2018-08-18T04:54:54.249Z,672
2018-08-18T04:55:54.929Z,684
2018-08-18T04:56:55.707Z,704
2018-08-18T04:57:56.292Z,740
2018-08-18T04:58:56.968Z,784
2018-08-18T04:59:57.645Z,812
2018-08-18T05:00:58.325Z,824
2018-08-18T05:01:59.005Z,824
2018-08-18T05:02:59.692Z,824
2018-08-18T05:04:00.362Z,820
2018-08-18T05:05:01.049Z,828
2018-08-18T05:06:01.721Z,844
2018-08-18T05:07:02.403Z,860
2018-08-18T05:08:03.083Z,880
2018-08-18T05:09:03.762Z,904
2018-08-18T05:10:04.488Z,936
2018-08-18T05:11:05.168Z,980
2018-08-18T05:12:05.847Z,1036
2018-08-18T05:13:06.531Z,1100
2018-08-18T05:14:07.212Z,1172
2018-08-18T05:15:07.894Z,1232
2018-08-18T05:16:08.585Z,1256
2018-08-18T05:17:09.268Z,1248
2018-08-18T05:18:09.948Z,1240
2018-08-18T05:19:10.641Z,1252
2018-08-18T05:20:11.311Z,1296
2018-08-18T05:21:11.992Z,1348
2018-08-18T05:22:12.673Z,1396
2018-08-18T05:23:13.355Z,1440
2018-08-18T05:24:14.035Z,1496
2018-08-18T05:25:14.720Z,1560
2018-08-18T05:26:15.398Z,1640
2018-08-18T05:27:16.077Z,1732
2018-08-18T05:28:16.763Z,1820
2018-08-18T05:29:17.486Z,1880
2018-08-18T05:30:18.169Z,1932
2018-08-18T05:31:18.889Z,1980
2018-08-18T05:32:19.574Z,2016
2018-08-18T05:33:20.253Z,2024
2018-08-18T05:34:20.948Z,2020
2018-08-18T05:35:21.617Z,2032
2018-08-18T05:36:22.335Z,2084
2018-08-18T05:37:22.981Z,2144
2018-08-18T05:38:23.664Z,2184
2018-08-18T05:39:24.345Z,2208
2018-08-18T05:40:25.032Z,2224
2018-08-18T05:41:25.714Z,2264
2018-08-18T05:42:26.393Z,2340
2018-08-18T05:43:27.074Z,2404
2018-08-18T05:44:27.763Z,2408
2018-08-18T05:45:28.484Z,2368
2018-08-18T05:46:29.165Z,2312
2018-08-18T05:47:29.880Z,2280
2018-08-18T05:48:30.530Z,2308
2018-08-18T05:49:31.212Z,2404
2018-08-18T05:50:31.906Z,2552
2018-08-18T05:51:32.621Z,2684
2018-08-18T05:52:33.346Z,2720
2018-08-18T05:53:34.029Z,2668
2018-08-18T05:54:34.712Z,2628
2018-08-18T05:55:35.394Z,2676
2018-08-18T05:56:36.076Z,2840
2018-08-18T05:57:36.759Z,3108
2018-08-18T05:58:37.442Z,3440
2018-08-18T05:59:38.153Z,3736
2018-08-18T06:00:38.813Z,3880
2018-08-18T06:01:39.537Z,3852
2018-08-18T06:02:40.220Z,3728
2018-08-18T06:03:40.903Z,3676
2018-08-18T06:04:41.587Z,3748
2018-08-18T06:05:42.282Z,3944
2018-08-18T06:06:42.955Z,4212
2018-08-18T06:07:43.635Z,4540
2018-08-18T06:08:44.319Z,4888
2018-08-18T06:09:45.001Z,5200
2018-08-18T06:10:45.693Z,5400
2018-08-18T06:11:46.367Z,5524
2018-08-18T06:12:47.050Z,5588
2018-08-18T06:13:47.735Z,5668
2018-08-18T06:14:48.417Z,5828
2018-08-18T06:15:49.125Z,6076
2018-08-18T06:16:49.829Z,6372
2018-08-18T06:17:50.516Z,6724
2018-08-18T06:18:51.239Z,7164
2018-08-18T06:19:51.924Z,7836
2018-08-18T06:20:52.608Z,8596
2018-08-18T06:21:53.290Z,9232
2018-08-18T06:22:53.975Z,9720
2018-08-18T06:23:54.662Z,9912
2018-08-18T06:24:55.386Z,9856
2018-08-18T06:25:56.070Z,9824
2018-08-18T06:26:56.755Z,9824
2018-08-18T06:27:57.438Z,9660
2018-08-18T06:28:58.124Z,9324
2018-08-18T06:29:58.853Z,8656
2018-08-18T06:30:59.534Z,7804
2018-08-18T06:32:00.221Z,7132
2018-08-18T06:33:00.905Z,6948
2018-08-18T06:34:01.589Z,7208
2018-08-18T06:35:02.355Z,7752
2018-08-18T06:36:02.996Z,8364
2018-08-18T06:37:03.680Z,8660
2018-08-18T06:38:04.366Z,8620
2018-08-18T06:39:05.052Z,8280
2018-08-18T06:40:05.738Z,7808
2018-08-18T06:41:06.497Z,7188
2018-08-18T06:42:07.184Z,6556
2018-08-18T06:43:07.869Z,5936
2018-08-18T06:44:08.555Z,5384
2018-08-18T06:45:09.239Z,4896
2018-08-18T06:46:09.929Z,4560
2018-08-18T06:47:10.610Z,4388
2018-08-18T06:48:11.294Z,4340
2018-08-18T06:49:11.978Z,4536
2018-08-18T06:50:12.666Z,4772
2018-08-18T06:51:13.414Z,4916
2018-08-18T06:52:14.123Z,4996
2018-08-18T06:53:14.810Z,4956
2018-08-18T06:54:15.508Z,4728
2018-08-18T06:55:16.335Z,4536
2018-08-18T06:56:16.867Z,4492
2018-08-18T06:57:17.595Z,4480
2018-08-18T06:58:18.287Z,4588
2018-08-18T06:59:19.026Z,4852
2018-08-18T07:00:19.737Z,5192
2018-08-18T07:01:20.423Z,5616
2018-08-18T07:02:21.151Z,5972
2018-08-18T07:03:21.834Z,6168
2018-08-18T07:04:22.521Z,6112
2018-08-18T07:05:23.205Z,5888
2018-08-18T07:06:23.893Z,5660
2018-08-18T07:07:24.577Z,5580
2018-08-18T07:08:25.262Z,5704
2018-08-18T07:09:25.947Z,5936
2018-08-18T07:10:26.668Z,6116
2018-08-18T07:11:27.373Z,6160
2018-08-18T07:12:28.047Z,5988
2018-08-18T07:13:28.732Z,5732
2018-08-18T07:14:29.418Z,5572
2018-08-18T07:15:30.106Z,5604
2018-08-18T07:16:30.788Z,5824
2018-08-18T07:17:31.474Z,6164
2018-08-18T07:18:32.158Z,6456
2018-08-18T07:19:32.845Z,6644
2018-08-18T07:20:33.574Z,6780
2018-08-18T07:21:34.262Z,6760
2018-08-18T07:22:34.992Z,6772
2018-08-18T07:23:35.675Z,6884
2018-08-18T07:24:36.362Z,7144
2018-08-18T07:25:37.047Z,7608
2018-08-18T07:26:37.777Z,8548
2018-08-18T07:27:38.480Z,10332
2018-08-18T07:28:39.213Z,11860
2018-08-18T07:29:39.838Z,10068
2018-08-18T07:30:40.522Z,9172
2018-08-18T07:31:41.209Z,8744
2018-08-18T07:32:41.895Z,8388
2018-08-18T07:33:42.783Z,8132
2018-08-18T07:34:43.471Z,8000
2018-08-18T07:35:44.155Z,8044
2018-08-18T07:36:44.842Z,8380
2018-08-18T07:37:45.527Z,9016
2018-08-18T07:38:46.213Z,9612
2018-08-18T07:39:46.901Z,10104
2018-08-18T07:40:47.588Z,10376
2018-08-18T07:41:48.277Z,10044
2018-08-18T07:42:48.962Z,9860
2018-08-18T07:43:49.651Z,10104
2018-08-18T07:44:50.337Z,10312
2018-08-18T07:45:51.025Z,10408
2018-08-18T07:46:51.713Z,10504
2018-08-18T07:47:52.443Z,10516
2018-08-18T07:48:53.129Z,10204
2018-08-18T07:49:53.819Z,9680
2018-08-18T07:50:54.502Z,8900
2018-08-18T07:51:55.232Z,8116
2018-08-18T07:52:55.920Z,7744
2018-08-18T07:53:56.607Z,7620
2018-08-18T07:54:57.309Z,7492
2018-08-18T07:55:58.023Z,7332
2018-08-18T07:56:58.711Z,7084
2018-08-18T07:57:59.402Z,6760
2018-08-18T07:59:00.127Z,6516
2018-08-18T08:00:00.888Z,6400
2018-08-18T08:01:01.500Z,6356
2018-08-18T08:02:02.188Z,6372
2018-08-18T08:03:02.879Z,6412
2018-08-18T08:04:03.563Z,6516
2018-08-18T08:05:04.323Z,6480
2018-08-18T08:06:04.978Z,6380
2018-08-18T08:07:05.665Z,6348
2018-08-18T08:08:06.351Z,6580
2018-08-18T08:09:07.038Z,6780
2018-08-18T08:10:07.742Z,6892
2018-08-18T08:11:08.455Z,6808
2018-08-18T08:12:09.139Z,6860
2018-08-18T08:13:09.870Z,7308
2018-08-18T08:14:10.557Z,7680
2018-08-18T08:15:11.242Z,8204
2018-08-18T08:16:11.929Z,8492
2018-08-18T08:17:12.616Z,9096
2018-08-18T08:18:13.355Z,9864
2018-08-18T08:19:13.990Z,10696
2018-08-18T08:20:14.677Z,11176
2018-08-18T08:21:15.367Z,11068
2018-08-18T08:22:16.054Z,10536
2018-08-18T08:23:16.738Z,9792
2018-08-18T08:24:17.426Z,8960
2018-08-18T08:25:18.113Z,8172
2018-08-18T08:26:18.800Z,7668
2018-08-18T08:27:19.597Z,7448
2018-08-18T08:28:20.266Z,7396
2018-08-18T08:29:20.952Z,7384
2018-08-18T08:30:21.639Z,7292
2018-08-18T08:31:22.325Z,7104
2018-08-18T08:32:23.055Z,6928
2018-08-18T08:33:23.744Z,6824
2018-08-18T08:34:24.431Z,6688
2018-08-18T08:35:25.118Z,6500
2018-08-18T08:36:25.803Z,6352
2018-08-18T08:37:26.491Z,6260
2018-08-18T08:38:27.179Z,6120
2018-08-18T08:39:27.864Z,5984
2018-08-18T08:40:28.567Z,5912
2018-08-18T08:41:29.284Z,5908
2018-08-18T08:42:29.970Z,5940
2018-08-18T08:43:30.656Z,5988
2018-08-18T08:44:31.352Z,6016
2018-08-18T08:45:32.074Z,5980
2018-08-18T08:46:32.759Z,5868
2018-08-18T08:47:33.452Z,5688
2018-08-18T08:48:34.135Z,5500
2018-08-18T08:49:34.822Z,5332
2018-08-18T08:50:35.733Z,5192
2018-08-18T08:51:36.442Z,5100
2018-08-18T08:52:37.127Z,5056
2018-08-18T08:53:37.815Z,5036
2018-08-18T08:54:38.501Z,5028
2018-08-18T08:55:39.186Z,5048
2018-08-18T08:56:39.893Z,5104
2018-08-18T08:57:40.642Z,5180
2018-08-18T08:58:41.336Z,5296
2018-08-18T08:59:42.023Z,5408
2018-08-18T09:00:42.709Z,5472
2018-08-18T09:01:43.394Z,5500
2018-08-18T09:02:44.082Z,5516
2018-08-18T09:03:44.768Z,5544
2018-08-18T09:04:45.453Z,5600
2018-08-18T09:05:46.141Z,5704
2018-08-18T09:06:46.830Z,5856
2018-08-18T09:07:47.556Z,6056
2018-08-18T09:08:48.243Z,6304
2018-08-18T09:09:48.929Z,6552
2018-08-18T09:10:49.617Z,6732
2018-08-18T09:11:50.301Z,6820
2018-08-18T09:12:50.996Z,6812
2018-08-18T09:13:51.716Z,6744
2018-08-18T09:14:52.401Z,6724
2018-08-18T09:15:53.092Z,6800
2018-08-18T09:16:53.775Z,7008
2018-08-18T09:17:54.461Z,7344
2018-08-18T09:18:55.151Z,7756
2018-08-18T09:19:55.879Z,8188
2018-08-18T09:20:56.608Z,8604
2018-08-18T09:21:57.295Z,8908
2018-08-18T09:22:57.982Z,9076
2018-08-18T09:23:58.668Z,9152
2018-08-18T09:24:59.355Z,9240
2018-08-18T09:26:00.067Z,9360
2018-08-18T09:27:00.729Z,9540
2018-08-18T09:28:01.416Z,9748
2018-08-18T09:29:02.147Z,9960
2018-08-18T09:30:02.877Z,10084
2018-08-18T09:31:03.567Z,10012
2018-08-18T09:32:04.253Z,9900
2018-08-18T09:33:04.938Z,9912
2018-08-18T09:34:05.629Z,10068
2018-08-18T09:35:06.317Z,10244
2018-08-18T09:36:07.005Z,10272
2018-08-18T09:37:07.726Z,10116
2018-08-18T09:38:08.430Z,9940
2018-08-18T09:39:09.115Z,9888
2018-08-18T09:40:09.802Z,9912
2018-08-18T09:41:10.490Z,10004
2018-08-18T09:42:11.181Z,10284
2018-08-18T09:43:11.868Z,10440
2018-08-18T09:44:12.558Z,10504
2018-08-18T09:45:13.245Z,10556
2018-08-18T09:46:14.030Z,10652
2018-08-18T09:47:14.670Z,10768
2018-08-18T09:48:15.358Z,10912
2018-08-18T09:49:16.089Z,11008
2018-08-18T09:50:16.778Z,10972
2018-08-18T09:51:17.466Z,10804
2018-08-18T09:52:18.155Z,10484
2018-08-18T09:53:18.841Z,10100
2018-08-18T09:54:19.530Z,9872
2018-08-18T09:55:20.220Z,9852
2018-08-18T09:56:20.907Z,9960
2018-08-18T09:57:21.594Z,10408
2018-08-18T09:58:22.324Z,10944
2018-08-18T09:59:23.111Z,11408
2018-08-18T10:00:23.704Z,11212
2018-08-18T10:01:24.394Z,11764
2018-08-18T10:02:25.083Z,12144
2018-08-18T10:03:25.772Z,12268
2018-08-18T10:04:26.460Z,12352
2018-08-18T10:05:27.147Z,12428
2018-08-18T10:06:27.944Z,12284
2018-08-18T10:07:28.527Z,11880
2018-08-18T10:08:29.216Z,11412
2018-08-18T10:09:29.905Z,10952
2018-08-18T10:10:30.595Z,10536
2018-08-18T10:11:31.282Z,9980
2018-08-18T10:12:31.971Z,9644
2018-08-18T10:13:32.692Z,9420
2018-08-18T10:14:33.396Z,9416
2018-08-18T10:15:34.124Z,9660
2018-08-18T10:16:34.812Z,9820
2018-08-18T10:17:35.519Z,9588
2018-08-18T10:18:36.235Z,9468
2018-08-18T10:19:36.922Z,9360
2018-08-18T10:20:37.613Z,9432
2018-08-18T10:21:38.301Z,9620
2018-08-18T10:22:38.988Z,9956
2018-08-18T10:23:39.680Z,10340
2018-08-18T10:24:40.373Z,10584
2018-08-18T10:25:41.107Z,10588
2018-08-18T10:26:41.796Z,10972
2018-08-18T10:27:42.485Z,10640
2018-08-18T10:28:43.177Z,10744
2018-08-18T10:29:43.866Z,10728
2018-08-18T10:30:44.553Z,10596
2018-08-18T10:31:45.242Z,10676
2018-08-18T10:32:45.932Z,10732
2018-08-18T10:33:46.622Z,10764
2018-08-18T10:34:47.314Z,10728
2018-08-18T10:35:48.043Z,10728
2018-08-18T10:36:48.733Z,10936
2018-08-18T10:37:49.438Z,11216
2018-08-18T10:38:50.113Z,11668
2018-08-18T10:39:50.804Z,11668
2018-08-18T10:40:51.534Z,11640
2018-08-18T10:41:52.225Z,11692
2018-08-18T10:42:52.914Z,11472
2018-08-18T10:43:53.601Z,11144
2018-08-18T10:44:54.293Z,11268
2018-08-18T10:45:54.990Z,10816
2018-08-18T10:46:55.739Z,10816
2018-08-18T10:47:56.447Z,10880
2018-08-18T10:48:57.156Z,10912
2018-08-18T10:49:58.221Z,10976
2018-08-18T10:50:58.847Z,10924
2018-08-18T10:51:59.537Z,10848
2018-08-18T10:53:00.226Z,10660
2018-08-18T10:54:00.915Z,10452
2018-08-18T10:55:01.657Z,10316
2018-08-18T10:56:02.383Z,10316
2018-08-18T10:57:03.114Z,10228
2018-08-18T10:58:03.802Z,10160
2018-08-18T10:59:04.494Z,9988
2018-08-18T11:00:05.182Z,9736
2018-08-18T11:01:05.876Z,9524
2018-08-18T11:02:06.560Z,9252
2018-08-18T11:03:07.292Z,9040
2018-08-18T11:04:07.938Z,8928
2018-08-18T11:05:08.668Z,8576
2018-08-18T11:06:09.376Z,8916
2018-08-18T11:07:10.090Z,8124
2018-08-18T11:08:10.777Z,7932
2018-08-18T11:09:11.467Z,7784
2018-08-18T11:10:12.153Z,7648
2018-08-18T11:11:12.842Z,7672
2018-08-18T11:12:13.530Z,7784
2018-08-18T11:13:14.218Z,8224
2018-08-18T11:14:14.906Z,9016
2018-08-18T11:15:15.595Z,9404
2018-08-18T11:16:16.285Z,9428
2018-08-18T11:17:16.972Z,9308
2018-08-18T11:18:17.664Z,9176
2018-08-18T11:19:18.393Z,9228
2018-08-18T11:20:19.112Z,9448
2018-08-18T11:21:19.813Z,9468
2018-08-18T11:22:20.504Z,9424
2018-08-18T11:23:21.193Z,9388
2018-08-18T11:24:21.881Z,9524
2018-08-18T11:25:22.569Z,9708
2018-08-18T11:26:23.257Z,9900
2018-08-18T11:27:23.947Z,10048
2018-08-18T11:28:24.702Z,10048
2018-08-18T11:29:25.333Z,10844
2018-08-18T11:30:26.058Z,10536
2018-08-18T11:31:26.777Z,9704
2018-08-18T11:32:27.478Z,9524
2018-08-18T11:33:28.168Z,9724
2018-08-18T11:34:28.858Z,10752
2018-08-18T11:35:29.547Z,10052
2018-08-18T11:36:30.234Z,9352
2018-08-18T11:37:30.922Z,9320
2018-08-18T11:38:31.611Z,10320
2018-08-18T11:39:32.343Z,9376
2018-08-18T11:40:33.031Z,9360
2018-08-18T11:41:33.816Z,9372
2018-08-18T11:42:34.446Z,9392
2018-08-18T11:43:35.135Z,9440
2018-08-18T11:44:35.824Z,9560
2018-08-18T11:45:36.513Z,9508
2018-08-18T11:46:37.201Z,9332
2018-08-18T11:47:37.892Z,9308
2018-08-18T11:48:38.579Z,9260
2018-08-18T11:49:39.266Z,9208
2018-08-18T11:50:39.956Z,9368
2018-08-18T11:51:40.645Z,10396
2018-08-18T11:52:41.337Z,10664
2018-08-18T11:53:42.024Z,10812
2018-08-18T11:54:42.715Z,11020
2018-08-18T11:55:43.405Z,11064
2018-08-18T11:56:44.093Z,10756
2018-08-18T11:57:44.784Z,10528
2018-08-18T11:58:45.475Z,10504
2018-08-18T11:59:46.165Z,10408
2018-08-18T12:00:46.854Z,10388
2018-08-18T12:01:47.557Z,10244
2018-08-18T12:02:48.235Z,9956
2018-08-18T12:03:48.922Z,9384
2018-08-18T12:04:49.612Z,10056
2018-08-18T12:05:50.302Z,10336
2018-08-18T12:06:50.993Z,10544
2018-08-18T12:07:51.682Z,10560
2018-08-18T12:08:52.371Z,10108
2018-08-18T12:09:53.062Z,9732
2018-08-18T12:10:53.879Z,9420
2018-08-18T12:11:54.437Z,9160
2018-08-18T12:12:55.127Z,8856
2018-08-18T12:13:55.863Z,8544
2018-08-18T12:14:56.547Z,8396
2018-08-18T12:15:57.235Z,8344
2018-08-18T12:16:57.924Z,8260
2018-08-18T12:17:58.613Z,8392
2018-08-18T12:18:59.301Z,8648
2018-08-18T12:19:59.990Z,8576
2018-08-18T12:21:00.684Z,8260
2018-08-18T12:22:01.369Z,7492
2018-08-18T12:23:02.056Z,7156
2018-08-18T12:24:02.745Z,7512
2018-08-18T12:25:03.432Z,6708
2018-08-18T12:26:04.122Z,7332
2018-08-18T12:27:04.812Z,7304
2018-08-18T12:28:05.524Z,6744
2018-08-18T12:29:06.233Z,6300
2018-08-18T12:30:07.050Z,5844
2018-08-18T12:31:07.607Z,5836
2018-08-18T12:32:08.295Z,5828
2018-08-18T12:33:08.985Z,5804
2018-08-18T12:34:09.682Z,6336
2018-08-18T12:35:10.407Z,6764
2018-08-18T12:36:11.220Z,5900
2018-08-18T12:37:11.850Z,6544
2018-08-18T12:38:12.505Z,6528
2018-08-18T12:39:13.199Z,6512
2018-08-18T12:40:13.946Z,6272
2018-08-18T12:41:14.662Z,4996
2018-08-18T12:42:15.392Z,4780
2018-08-18T12:43:16.080Z,5112
2018-08-18T12:44:16.771Z,5256
2018-08-18T12:45:17.532Z,4936
2018-08-18T12:46:18.238Z,4484
2018-08-18T12:47:18.919Z,5528
2018-08-18T12:48:19.605Z,5476
2018-08-18T12:49:20.342Z,4716
2018-08-18T12:50:21.071Z,4708
2018-08-18T12:51:21.798Z,5668
2018-08-18T12:52:22.485Z,4664
2018-08-18T12:53:23.175Z,4332
2018-08-18T12:54:23.860Z,4368
2018-08-18T12:55:24.548Z,4016
2018-08-18T12:56:25.236Z,5172
2018-08-18T12:57:25.923Z,5572
2018-08-18T12:58:26.686Z,5516
2018-08-18T12:59:27.300Z,5668
2018-08-18T13:00:27.987Z,5716
2018-08-18T13:01:28.673Z,5792
2018-08-18T13:02:29.362Z,5872
2018-08-18T13:03:30.050Z,5852
2018-08-18T13:04:30.902Z,5904
2018-08-18T13:05:31.421Z,5868
2018-08-18T13:06:32.114Z,5912
2018-08-18T13:07:32.802Z,5920
2018-08-18T13:08:33.525Z,6084
2018-08-18T13:09:34.208Z,6084
2018-08-18T13:10:34.895Z,6124
2018-08-18T13:11:35.643Z,6132
2018-08-18T13:12:36.269Z,6264
2018-08-18T13:13:36.955Z,6648
2018-08-18T13:14:37.639Z,7308
2018-08-18T13:15:38.392Z,7656
2018-08-18T13:16:39.099Z,8024
2018-08-18T13:17:39.852Z,8356
2018-08-18T13:18:40.597Z,8368
2018-08-18T13:19:41.244Z,8288
2018-08-18T13:20:41.949Z,8544
2018-08-18T13:21:42.661Z,8932
2018-08-18T13:22:43.347Z,9052
2018-08-18T13:23:44.034Z,8880
2018-08-18T13:24:44.720Z,8548
2018-08-18T13:25:45.405Z,8476
2018-08-18T13:26:46.137Z,8424
2018-08-18T13:27:46.866Z,8480
2018-08-18T13:28:47.552Z,8504
2018-08-18T13:29:48.240Z,8252
2018-08-18T13:30:48.927Z,7696
2018-08-18T13:31:49.643Z,7368
2018-08-18T13:32:50.342Z,7864
2018-08-18T13:33:51.029Z,8392
2018-08-18T13:34:51.714Z,8120
2018-08-18T13:35:52.403Z,9940
2018-08-18T13:36:53.089Z,8904
2018-08-18T13:37:53.775Z,8604
2018-08-18T13:38:54.463Z,8384
2018-08-18T13:39:55.149Z,8412
2018-08-18T13:40:55.836Z,8676
2018-08-18T13:41:56.525Z,7880
2018-08-18T13:42:57.255Z,9320
2018-08-18T13:43:57.941Z,8492
2018-08-18T13:44:58.631Z,7904
2018-08-18T13:45:59.317Z,8596
2018-08-18T13:47:00.003Z,8012
2018-08-18T13:48:00.691Z,7464
2018-08-18T13:49:01.377Z,6312
2018-08-18T13:50:02.073Z,5596
2018-08-18T13:51:02.794Z,5112
2018-08-18T13:52:03.480Z,4892